createdAt,value
2023-03-06T00:00:40.239Z,82.72
2023-03-06T00:03:07.191Z,82.53
2023-03-06T00:05:33.904Z,82.77
2023-03-06T00:08:00.673Z,82.74
2023-03-06T00:10:30.192Z,82.54
2023-03-06T00:12:59.481Z,82.54
2023-03-06T00:15:26.962Z,82.96
2023-03-06T00:17:54.294Z,83.05
2023-03-06T00:20:21.166Z,83.05
2023-03-06T00:22:48.732Z,83.03
2023-03-06T00:25:17.582Z,83.13
2023-03-06T00:27:46.244Z,83.47
2023-03-06T00:30:15.178Z,83.35
2023-03-06T00:32:42.342Z,83.44
2023-03-06T00:35:09.926Z,83.65
2023-03-06T00:37:36.623Z,83.54
2023-03-06T00:40:05.123Z,83.69
2023-03-06T00:42:31.717Z,83.71
2023-03-06T00:44:59.689Z,83.46
2023-03-06T00:47:26.362Z,83.50
2023-03-06T00:49:53.888Z,83.61
2023-03-06T00:52:20.901Z,83.59
2023-03-06T00:54:47.831Z,83.51
2023-03-06T00:57:14.460Z,83.81
2023-03-06T00:59:41.167Z,84.23
2023-03-06T01:02:09.826Z,83.97
2023-03-06T01:04:36.536Z,83.63
2023-03-06T01:07:03.434Z,84.20
2023-03-06T01:09:30.028Z,83.73
2023-03-06T01:11:56.865Z,84.21
2023-03-06T01:14:24.162Z,83.80
2023-03-06T01:16:51.174Z,84.16
2023-03-06T01:19:19.276Z,84.38
2023-03-06T01:21:46.374Z,84.40
2023-03-06T01:24:13.038Z,84.24
2023-03-06T01:26:39.720Z,84.28
2023-03-06T01:29:06.466Z,84.63
2023-03-06T01:31:33.591Z,84.79
2023-03-06T01:34:01.265Z,84.67
2023-03-06T01:36:29.820Z,84.62
2023-03-06T01:38:57.237Z,84.44
2023-03-06T01:41:24.068Z,84.67
2023-03-06T01:43:51.053Z,84.88
2023-03-06T01:46:33.550Z,85.12
2023-03-06T01:49:04.593Z,85.01
2023-03-06T01:51:35.653Z,85.09
2023-03-06T01:54:06.740Z,84.80
2023-03-06T01:56:33.714Z,84.85
2023-03-06T01:59:00.960Z,84.73
2023-03-06T02:01:28.968Z,84.88
2023-03-06T02:03:56.031Z,85.08
2023-03-06T02:06:22.626Z,85.24
2023-03-06T02:08:52.592Z,85.80
2023-03-06T02:11:21.678Z,86.01
2023-03-06T02:13:49.635Z,85.75
2023-03-06T02:16:17.652Z,85.62
2023-03-06T02:18:45.664Z,86.40
2023-03-06T02:21:19.507Z,86.61
2023-03-06T02:23:56.282Z,86.33
2023-03-06T02:26:26.838Z,86.77
2023-03-06T02:28:53.660Z,86.62
2023-03-06T02:31:23.548Z,86.57
2023-03-06T02:34:05.208Z,87.06
2023-03-06T02:36:33.873Z,87.55
2023-03-06T02:39:01.421Z,87.42
2023-03-06T02:41:29.504Z,87.67
2023-03-06T02:43:56.080Z,87.49
2023-03-06T02:46:22.798Z,87.48
2023-03-06T02:48:49.767Z,87.67
2023-03-06T02:51:16.543Z,87.83
2023-03-06T02:53:43.094Z,87.33
2023-03-06T02:56:09.690Z,87.51
2023-03-06T02:58:37.820Z,87.52
2023-03-06T03:01:05.218Z,87.65
2023-03-06T03:03:31.916Z,87.79
2023-03-06T03:05:58.512Z,87.65
2023-03-06T03:08:25.118Z,87.66
2023-03-06T03:10:51.669Z,87.89
2023-03-06T03:13:18.311Z,87.99
2023-03-06T03:15:46.329Z,87.92
2023-03-06T03:18:12.897Z,87.64
2023-03-06T03:20:42.269Z,87.53
2023-03-06T03:23:08.855Z,87.55
2023-03-06T03:25:35.417Z,87.58
2023-03-06T03:28:02.088Z,87.83
2023-03-06T03:30:28.652Z,88.03
2023-03-06T03:32:56.631Z,87.58
2023-03-06T03:35:23.247Z,87.68
2023-03-06T03:37:50.164Z,87.71
2023-03-06T03:40:17.091Z,88.05
2023-03-06T03:42:43.901Z,88.20
2023-03-06T03:45:11.398Z,88.17
2023-03-06T03:47:38.164Z,87.98
2023-03-06T03:50:07.643Z,87.82
2023-03-06T03:52:34.296Z,88.00
2023-03-06T03:55:01.035Z,87.90
2023-03-06T03:57:27.607Z,87.63
2023-03-06T03:59:55.175Z,87.80
2023-03-06T04:02:21.946Z,88.20
2023-03-06T04:04:48.937Z,88.23
2023-03-06T04:09:57.423Z,88.29
2023-03-06T04:12:24.809Z,88.16
2023-03-06T04:14:51.879Z,87.71
2023-03-06T04:17:18.497Z,88.11
2023-03-06T04:19:45.066Z,87.42
2023-03-06T04:22:11.812Z,87.35
2023-03-06T04:24:39.803Z,87.40
2023-03-06T04:27:06.416Z,87.36
2023-03-06T04:29:33.038Z,87.56
2023-03-06T04:31:59.646Z,87.65
2023-03-06T04:34:26.261Z,87.18
2023-03-06T04:36:53.094Z,87.20
2023-03-06T04:39:19.900Z,87.42
2023-03-06T04:41:47.909Z,87.62
2023-03-06T04:44:14.915Z,86.89
2023-03-06T04:46:41.639Z,86.98
2023-03-06T04:49:08.347Z,87.21
2023-03-06T04:51:35.173Z,87.34
2023-03-06T04:54:01.804Z,87.25
2023-03-06T04:56:28.558Z,87.20
2023-03-06T04:58:56.529Z,87.32
2023-03-06T05:01:23.170Z,87.33
2023-03-06T05:03:49.789Z,87.40
2023-03-06T05:06:16.442Z,87.08
2023-03-06T05:08:43.061Z,87.32
2023-03-06T05:11:09.713Z,87.54
2023-03-06T05:13:36.319Z,87.07
2023-03-06T05:16:06.008Z,87.64
2023-03-06T05:18:33.721Z,87.19
2023-03-06T05:21:00.704Z,87.43
2023-03-06T05:23:27.961Z,87.26
2023-03-06T05:25:54.695Z,86.87
2023-03-06T05:28:21.692Z,86.89
2023-03-06T05:30:49.012Z,86.83
2023-03-06T05:33:17.110Z,86.82
2023-03-06T05:35:45.835Z,86.45
2023-03-06T05:38:12.643Z,87.03
2023-03-06T05:40:40.833Z,87.19
2023-03-06T05:43:07.929Z,86.81
2023-03-06T05:45:35.018Z,87.12
2023-03-06T05:48:01.755Z,87.40
2023-03-06T05:50:29.967Z,87.39
2023-03-06T05:52:56.616Z,87.53
2023-03-06T05:55:23.302Z,87.08
2023-03-06T05:57:50.144Z,86.86
2023-03-06T06:00:17.981Z,87.14
2023-03-06T06:02:45.459Z,87.60
2023-03-06T06:05:13.303Z,87.47
2023-03-06T06:07:41.474Z,86.99
2023-03-06T06:10:10.818Z,87.18
2023-03-06T06:12:37.767Z,86.97
2023-03-06T06:15:05.598Z,87.13
2023-03-06T06:17:32.310Z,87.62
2023-03-06T06:19:59.116Z,87.41
2023-03-06T06:22:25.841Z,87.39
2023-03-06T06:24:53.743Z,87.08
2023-03-06T06:27:20.469Z,86.89
2023-03-06T06:29:50.508Z,86.88
2023-03-06T06:32:17.200Z,86.92
2023-03-06T06:34:43.839Z,86.97
2023-03-06T06:37:10.517Z,86.87
2023-03-06T06:39:37.204Z,87.12
2023-03-06T06:42:28.211Z,87.19
2023-03-06T06:44:52.249Z,86.98
2023-03-06T06:47:23.128Z,86.85
2023-03-06T06:49:51.249Z,87.33
2023-03-06T06:52:18.143Z,87.50
2023-03-06T06:54:44.893Z,87.20
2023-03-06T06:57:13.115Z,87.11
2023-03-06T06:59:40.000Z,86.83
2023-03-06T07:02:06.721Z,86.58
2023-03-06T07:04:33.402Z,86.87
2023-03-06T07:07:00.126Z,87.02
2023-03-06T07:09:26.707Z,86.79
2023-03-06T07:11:53.368Z,86.84
2023-03-06T07:14:21.475Z,86.39
2023-03-06T07:16:48.098Z,86.15
2023-03-06T07:19:14.876Z,86.12
2023-03-06T07:21:41.554Z,85.74
2023-03-06T07:24:08.382Z,85.54
2023-03-06T07:26:35.104Z,85.55
2023-03-06T07:29:01.930Z,85.04
2023-03-06T07:31:30.259Z,84.69
2023-03-06T07:33:56.974Z,84.97
2023-03-06T07:36:23.903Z,84.61
2023-03-06T07:38:50.603Z,84.73
2023-03-06T07:41:17.273Z,84.30
2023-03-06T07:43:45.666Z,84.44
2023-03-06T07:46:13.278Z,84.24
2023-03-06T07:48:42.242Z,84.13
2023-03-06T07:51:14.306Z,83.74
2023-03-06T07:53:41.243Z,83.58
2023-03-06T07:56:08.724Z,82.79
2023-03-06T07:58:35.947Z,83.17
2023-03-06T08:01:07.239Z,83.24
2023-03-06T08:03:34.274Z,82.90
2023-03-06T08:06:11.095Z,83.01
2023-03-06T08:08:38.963Z,82.66
2023-03-06T08:11:06.032Z,82.71
2023-03-06T08:13:33.261Z,82.58
2023-03-06T08:15:59.931Z,82.22
2023-03-06T08:18:26.856Z,82.81
2023-03-06T08:21:01.728Z,82.94
2023-03-06T08:23:29.765Z,82.07
2023-03-06T08:25:57.419Z,81.84
2023-03-06T08:28:24.100Z,81.55
2023-03-06T08:30:50.703Z,81.80
2023-03-06T08:33:17.513Z,82.00
2023-03-06T08:35:44.180Z,81.61
2023-03-06T08:38:10.806Z,81.12
2023-03-06T08:40:38.817Z,81.42
2023-03-06T08:43:05.422Z,80.49
2023-03-06T08:45:32.024Z,80.64
2023-03-06T08:47:58.641Z,80.82
2023-03-06T08:50:25.340Z,80.41
2023-03-06T08:52:51.897Z,80.03
2023-03-06T08:55:18.731Z,80.01
2023-03-06T08:57:47.045Z,79.40
2023-03-06T09:00:15.046Z,80.49
2023-03-06T09:02:41.708Z,80.24
2023-03-06T09:05:09.120Z,80.40
2023-03-06T09:07:35.802Z,80.54
2023-03-06T09:10:02.784Z,80.64
2023-03-06T09:12:30.820Z,80.68
2023-03-06T09:15:05.012Z,80.17
2023-03-06T09:17:31.696Z,79.83
2023-03-06T09:19:58.297Z,79.76
2023-03-06T09:22:25.155Z,79.98
2023-03-06T09:24:51.789Z,79.55
2023-03-06T09:27:18.588Z,79.85
2023-03-06T09:29:45.262Z,80.11
2023-03-06T09:32:13.298Z,79.78
2023-03-06T09:34:40.154Z,80.09
2023-03-06T09:37:06.719Z,79.96
2023-03-06T09:39:33.380Z,80.28
2023-03-06T09:42:00.110Z,80.29
2023-03-06T09:44:29.314Z,79.60
2023-03-06T09:47:10.741Z,79.43
2023-03-06T09:49:47.086Z,79.69
2023-03-06T09:52:35.234Z,79.12
2023-03-06T09:55:11.844Z,78.88
2023-03-06T09:57:42.845Z,78.48
2023-03-06T10:00:15.257Z,79.08
2023-03-06T10:02:45.935Z,78.85
2023-03-06T10:05:19.589Z,77.95
2023-03-06T10:07:50.451Z,78.68
2023-03-06T10:10:20.288Z,78.81
2023-03-06T10:12:53.649Z,78.25
2023-03-06T10:15:22.361Z,78.55
2023-03-06T10:17:49.174Z,78.61
2023-03-06T10:20:19.784Z,78.71
2023-03-06T10:23:03.076Z,77.49
2023-03-06T10:25:36.713Z,77.69
2023-03-06T10:28:14.245Z,77.63
2023-03-06T10:30:47.033Z,77.28
2023-03-06T10:33:22.358Z,77.13
2023-03-06T10:35:52.981Z,77.07
2023-03-06T10:38:21.885Z,77.58
2023-03-06T10:40:59.360Z,77.81
2023-03-06T10:43:26.317Z,77.41
2023-03-06T10:45:53.797Z,77.17
2023-03-06T10:48:23.885Z,76.93
2023-03-06T10:50:52.772Z,76.58
2023-03-06T10:53:22.913Z,77.15
2023-03-06T10:55:57.987Z,76.81
2023-03-06T10:58:27.559Z,76.98
2023-03-06T11:01:02.788Z,76.16
2023-03-06T11:03:29.731Z,76.69
2023-03-06T11:06:01.928Z,76.88
2023-03-06T11:08:28.868Z,75.77
2023-03-06T11:10:57.991Z,75.77
2023-03-06T11:13:26.710Z,75.91
2023-03-06T11:16:01.155Z,75.53
2023-03-06T11:18:30.427Z,75.58
2023-03-06T11:20:58.546Z,75.63
2023-03-06T11:23:35.176Z,75.37
2023-03-06T11:26:09.053Z,75.10
2023-03-06T11:28:40.217Z,73.80
2023-03-06T11:31:11.696Z,73.76
2023-03-06T11:33:42.823Z,74.31
2023-03-06T11:36:15.657Z,73.84
2023-03-06T11:38:46.499Z,74.76
2023-03-06T11:41:19.035Z,74.07
2023-03-06T11:43:55.082Z,74.18
2023-03-06T11:46:26.356Z,74.37
2023-03-06T11:48:58.159Z,74.37
2023-03-06T11:51:29.062Z,73.03
2023-03-06T11:53:58.593Z,74.22
2023-03-06T11:56:35.517Z,73.88
2023-03-06T11:59:12.936Z,74.12
2023-03-06T12:01:47.265Z,73.50
2023-03-06T12:04:34.035Z,73.36
2023-03-06T12:07:17.616Z,73.41
2023-03-06T12:09:45.694Z,72.05
2023-03-06T12:12:34.072Z,71.66
2023-03-06T12:15:35.358Z,71.68
2023-03-06T12:18:18.140Z,71.40
2023-03-06T12:20:55.756Z,71.44
2023-03-06T12:23:36.959Z,72.76
2023-03-06T12:26:17.520Z,71.66
2023-03-06T12:29:00.618Z,71.13
2023-03-06T12:31:43.511Z,70.91
2023-03-06T12:34:26.090Z,69.97
2023-03-06T12:37:01.234Z,68.88
2023-03-06T12:39:43.282Z,69.23
2023-03-06T12:42:25.961Z,68.09
2023-03-06T12:45:21.106Z,67.61
2023-03-06T12:47:52.250Z,67.16
2023-03-06T12:50:23.440Z,67.64
2023-03-06T12:52:51.805Z,66.23
2023-03-06T12:55:24.345Z,65.58
2023-03-06T12:57:52.271Z,67.21
2023-03-06T13:01:04.724Z,65.21
2023-03-06T13:03:44.938Z,65.76
2023-03-06T13:06:51.465Z,65.65
2023-03-06T13:09:23.444Z,65.43
2023-03-06T13:12:18.301Z,65.51
2023-03-06T13:14:54.742Z,64.21
2023-03-06T13:17:34.070Z,64.08
2023-03-06T13:20:28.051Z,62.76
2023-03-06T13:22:54.641Z,61.17
2023-03-06T13:25:48.564Z,62.40
2023-03-06T13:28:38.916Z,62.59
2023-03-06T13:31:10.595Z,62.06
2023-03-06T13:33:59.386Z,60.29
2023-03-06T13:36:31.668Z,60.09
2023-03-06T13:39:08.809Z,59.94
2023-03-06T13:41:52.964Z,61.45
2023-03-06T13:44:42.158Z,62.44
2023-03-06T13:47:39.701Z,62.15
2023-03-06T13:50:35.334Z,62.39
2023-03-06T13:53:35.328Z,60.80
2023-03-06T13:56:26.869Z,60.18
2023-03-06T13:59:14.089Z,59.90
2023-03-06T14:01:53.566Z,59.74
2023-03-06T14:04:33.719Z,59.90
2023-03-06T14:07:20.071Z,60.59
2023-03-06T14:09:53.345Z,58.23
2023-03-06T14:12:23.848Z,58.87
2023-03-06T14:14:54.633Z,59.10
2023-03-06T14:17:29.121Z,57.62
2023-03-06T14:19:58.294Z,56.83
2023-03-06T14:22:25.274Z,56.51
2023-03-06T14:24:56.346Z,57.16
2023-03-06T14:27:39.008Z,57.42
2023-03-06T14:30:08.265Z,56.95
2023-03-06T14:32:38.296Z,56.19
2023-03-06T14:35:05.800Z,56.92
2023-03-06T14:37:36.505Z,57.12
2023-03-06T14:40:09.480Z,57.15
2023-03-06T14:42:36.106Z,59.00
2023-03-06T14:45:14.363Z,58.92
2023-03-06T14:47:43.028Z,57.69
2023-03-06T14:50:23.913Z,57.83
2023-03-06T14:52:54.147Z,58.13
2023-03-06T14:55:23.728Z,59.36
2023-03-06T14:57:56.600Z,57.21
2023-03-06T15:00:26.815Z,58.00
2023-03-06T15:02:55.793Z,58.19
2023-03-06T15:05:27.819Z,57.50
2023-03-06T15:07:57.902Z,58.32
2023-03-06T15:10:26.543Z,58.00
2023-03-06T15:12:53.239Z,57.93
2023-03-06T15:15:29.357Z,58.10
2023-03-06T15:17:57.517Z,57.64
2023-03-06T15:20:42.770Z,58.73
2023-03-06T15:23:21.890Z,57.62
2023-03-06T15:25:54.488Z,58.52
2023-03-06T15:28:31.964Z,59.21
2023-03-06T15:31:21.054Z,58.73
2023-03-06T15:34:23.786Z,59.32
2023-03-06T15:36:53.350Z,59.31
2023-03-06T15:39:32.075Z,59.81
2023-03-06T15:41:59.878Z,59.56
2023-03-06T15:44:27.172Z,60.00
2023-03-06T15:46:59.213Z,60.09
2023-03-06T15:49:30.780Z,59.24
2023-03-06T15:51:57.432Z,59.85
2023-03-06T15:54:24.105Z,59.83
2023-03-06T15:56:50.817Z,60.08
2023-03-06T15:59:23.067Z,60.20
2023-03-06T16:01:50.444Z,59.99
2023-03-06T16:04:17.460Z,60.12
2023-03-06T16:06:45.921Z,60.44
2023-03-06T16:09:13.429Z,60.52
2023-03-06T16:11:44.134Z,60.68
2023-03-06T16:14:21.777Z,61.43
2023-03-06T16:16:48.819Z,61.53
2023-03-06T16:19:26.006Z,61.65
2023-03-06T16:21:55.256Z,61.73
2023-03-06T16:24:22.002Z,61.98
2023-03-06T16:26:50.478Z,62.19
2023-03-06T16:29:19.413Z,62.26
2023-03-06T16:31:46.267Z,62.84
2023-03-06T16:34:13.164Z,63.29
2023-03-06T16:36:40.535Z,63.02
2023-03-06T16:39:13.512Z,63.23
2023-03-06T16:41:40.205Z,63.63
2023-03-06T16:44:07.082Z,63.62
2023-03-06T16:46:37.230Z,63.46
2023-03-06T16:49:03.817Z,64.30
2023-03-06T16:51:30.356Z,64.17
2023-03-06T16:53:57.061Z,64.41
2023-03-06T16:56:25.256Z,64.42
2023-03-06T16:58:51.971Z,64.66
2023-03-06T17:01:19.487Z,65.07
2023-03-06T17:03:47.081Z,65.22
2023-03-06T17:06:15.160Z,65.10
2023-03-06T17:08:41.892Z,65.57
2023-03-06T17:11:08.801Z,66.19
2023-03-06T17:13:37.186Z,65.75
2023-03-06T17:16:04.093Z,66.20
2023-03-06T17:18:31.415Z,66.43
2023-03-06T17:20:58.373Z,67.24
2023-03-06T17:23:26.725Z,66.87
2023-03-06T17:26:02.256Z,67.27
2023-03-06T17:28:28.844Z,67.79
2023-03-06T17:30:56.882Z,67.53
2023-03-06T17:33:23.598Z,68.17
2023-03-06T17:35:50.263Z,68.13
2023-03-06T17:38:17.012Z,68.77
2023-03-06T17:40:43.650Z,68.85
2023-03-06T17:43:10.229Z,69.52
2023-03-06T17:45:36.877Z,69.45
2023-03-06T17:48:05.202Z,69.78
2023-03-06T17:50:31.976Z,69.89
2023-03-06T17:52:58.616Z,70.09
2023-03-06T17:55:25.269Z,71.00
2023-03-06T17:57:51.965Z,71.14
2023-03-06T18:00:19.597Z,71.29
2023-03-06T18:02:46.293Z,71.09
2023-03-06T18:05:14.535Z,70.93
2023-03-06T18:07:41.262Z,71.96
2023-03-06T18:10:08.350Z,72.15
2023-03-06T18:12:35.052Z,72.26
2023-03-06T18:15:02.418Z,72.27
2023-03-06T18:17:29.230Z,72.67
2023-03-06T18:19:56.065Z,72.91
2023-03-06T18:22:24.427Z,73.04
2023-03-06T18:24:51.120Z,73.60
2023-03-06T18:27:17.893Z,73.92
2023-03-06T18:29:44.571Z,74.09
2023-03-06T18:32:11.252Z,74.22
2023-03-06T18:34:37.903Z,74.20
2023-03-06T18:37:04.646Z,74.50
2023-03-06T18:39:32.731Z,74.92
2023-03-06T18:41:59.411Z,75.36
2023-03-06T18:44:26.189Z,74.77
2023-03-06T18:46:52.824Z,75.46
2023-03-06T18:49:19.556Z,75.19
2023-03-06T18:51:46.449Z,75.56
2023-03-06T18:54:13.261Z,75.40
2023-03-06T18:56:41.356Z,75.17
2023-03-06T18:59:08.093Z,75.86
2023-03-06T19:01:35.119Z,75.73
2023-03-06T19:04:03.191Z,76.83
2023-03-06T19:06:30.316Z,76.38
2023-03-06T19:08:57.490Z,76.86
2023-03-06T19:11:25.560Z,76.94
2023-03-06T19:13:53.862Z,77.04
2023-03-06T19:16:22.721Z,77.46
2023-03-06T19:18:49.732Z,77.28
2023-03-06T19:21:18.785Z,78.01
2023-03-06T19:23:45.590Z,77.72
2023-03-06T19:26:12.772Z,77.59
2023-03-06T19:28:41.110Z,77.47
2023-03-06T19:31:10.852Z,78.15
2023-03-06T19:33:37.756Z,77.91
2023-03-06T19:36:05.379Z,78.32
2023-03-06T19:38:32.153Z,77.85
2023-03-06T19:40:59.061Z,78.40
2023-03-06T19:43:25.957Z,78.17
2023-03-06T19:45:52.705Z,78.60
2023-03-06T19:48:22.729Z,78.67
2023-03-06T19:50:49.672Z,78.58
2023-03-06T19:53:16.431Z,79.33
2023-03-06T19:55:43.562Z,79.57
2023-03-06T19:58:10.382Z,79.53
2023-03-06T20:00:37.654Z,78.94
2023-03-06T20:03:04.546Z,79.36
2023-03-06T20:05:33.134Z,79.17
2023-03-06T20:07:59.940Z,80.07
2023-03-06T20:10:26.835Z,80.08
2023-03-06T20:12:53.825Z,79.60
2023-03-06T20:15:20.536Z,79.82
2023-03-06T20:17:47.243Z,79.70
2023-03-06T20:20:14.103Z,79.55
2023-03-06T20:22:42.278Z,79.96
2023-03-06T20:25:09.257Z,79.90
2023-03-06T20:27:36.007Z,79.91
2023-03-06T20:30:02.942Z,80.29
2023-03-06T20:32:29.787Z,80.58
2023-03-06T20:34:56.468Z,80.74
2023-03-06T20:37:23.229Z,80.63
2023-03-06T20:39:51.836Z,80.54
2023-03-06T20:42:18.781Z,80.38
2023-03-06T20:44:45.448Z,81.09
2023-03-06T20:47:12.205Z,80.87
2023-03-06T20:49:38.989Z,80.32
2023-03-06T20:52:05.951Z,81.05
2023-03-06T20:54:32.672Z,80.95
2023-03-06T20:57:01.071Z,80.93
2023-03-06T20:59:27.839Z,80.90
2023-03-06T21:01:54.594Z,81.28
2023-03-06T21:04:21.473Z,81.04
2023-03-06T21:06:48.100Z,81.23
2023-03-06T21:09:16.318Z,81.19
2023-03-06T21:11:43.041Z,81.07
2023-03-06T21:14:11.033Z,81.18
2023-03-06T21:16:37.758Z,80.89
2023-03-06T21:19:04.627Z,80.87
2023-03-06T21:21:33.104Z,80.71
2023-03-06T21:24:01.070Z,80.87
2023-03-06T21:26:30.159Z,80.91
2023-03-06T21:28:57.592Z,80.81
2023-03-06T21:31:26.534Z,80.41
2023-03-06T21:33:53.118Z,79.92
2023-03-06T21:36:20.429Z,80.52
2023-03-06T21:38:48.571Z,80.21
2023-03-06T21:41:16.784Z,80.35
2023-03-06T21:43:44.023Z,80.86
2023-03-06T21:46:11.091Z,81.00
2023-03-06T21:48:39.327Z,80.80
2023-03-06T21:51:08.376Z,80.46
2023-03-06T21:53:35.268Z,80.25
2023-03-06T21:56:02.304Z,79.92
2023-03-06T21:58:29.472Z,79.51
2023-03-06T22:00:56.216Z,79.82
2023-03-06T22:03:22.920Z,79.53
2023-03-06T22:05:50.993Z,79.29
2023-03-06T22:08:18.307Z,79.40
2023-03-06T22:10:46.476Z,79.42
2023-03-06T22:13:14.262Z,79.20
2023-03-06T22:15:49.304Z,79.19
2023-03-06T22:18:15.860Z,79.62
2023-03-06T22:20:42.479Z,79.78
2023-03-06T22:23:10.420Z,79.83
2023-03-06T22:25:37.180Z,79.64
2023-03-06T22:28:03.822Z,80.30
2023-03-06T22:30:30.469Z,79.85
2023-03-06T22:32:57.083Z,80.68
2023-03-06T22:35:23.731Z,80.87
2023-03-06T22:37:50.367Z,81.08
2023-03-06T22:40:18.575Z,81.22
2023-03-06T22:42:45.209Z,80.96
2023-03-06T22:45:12.080Z,81.13
2023-03-06T22:47:39.227Z,81.03
2023-03-06T22:50:06.998Z,80.91
2023-03-06T22:52:33.665Z,80.82
2023-03-06T22:55:00.232Z,80.81
2023-03-06T22:57:28.351Z,80.03
2023-03-06T22:59:54.901Z,79.75
2023-03-06T23:02:21.540Z,79.96
2023-03-06T23:04:49.055Z,80.25
2023-03-06T23:07:15.764Z,80.27
2023-03-06T23:09:42.361Z,79.94
2023-03-06T23:12:09.194Z,80.22
2023-03-06T23:14:37.368Z,79.75
2023-03-06T23:17:04.076Z,80.21
2023-03-06T23:19:31.202Z,80.13
2023-03-06T23:21:57.793Z,80.54
2023-03-06T23:24:24.539Z,81.06
2023-03-06T23:26:51.151Z,81.32
2023-03-06T23:29:17.880Z,81.05
2023-03-06T23:31:45.849Z,81.05
2023-03-06T23:34:12.518Z,81.04
2023-03-06T23:36:39.148Z,81.06
2023-03-06T23:39:05.739Z,81.42
2023-03-06T23:41:32.346Z,81.65
2023-03-06T23:43:58.911Z,81.58
2023-03-06T23:46:25.745Z,81.72
2023-03-06T23:48:53.933Z,81.19
2023-03-06T23:51:22.214Z,81.12
2023-03-06T23:53:54.355Z,81.63
2023-03-06T23:56:21.008Z,81.99
2023-03-06T23:58:47.667Z,81.91
